Time;durP1;ratioP1;P1;durP2;ratioP2;P2;SDS_P1;SDS_P2;PMS_P1;PMS_P2;Temp;Humidity;BMP_temperature;BMP_pressure;BME280_temperature;BME280_humidity;BME280_pressure;Samples;Min_cycle;Max_cycle;Signal;HPM_P1;HPM_P2
2022/03/06 00:01:20;;;;;;;;;;;;;;;8.57;31.77;99957.19;4486199;31;35078;-68
2022/03/06 00:03:48;;;;;;;;;;;;;;;8.36;33.37;99958.47;4490696;31;33996;-65
2022/03/06 00:06:16;;;;;;;;;;;;;;;8.44;31.50;99953.53;4485099;31;34204;-69
2022/03/06 00:08:44;;;;;;;;;;;;;;;8.02;31.78;99960.53;4497249;31;35134;-68
2022/03/06 00:11:12;;;;;;;;;;;;;;;7.91;32.09;99961.19;4494483;31;34163;-67
2022/03/06 00:13:39;;;;;;;;;;;;;;;7.46;33.79;99967.47;4476200;31;33195;-67
2022/03/06 00:16:07;;;;;;;;;;;;;;;7.66;33.45;99966.28;4489967;31;34176;-64
2022/03/06 00:18:37;;;;;;;;;;;;;;;8.30;32.58;99972.19;4495652;31;35108;-66
2022/03/06 00:21:05;;;;;;;;;;;;;;;8.32;31.67;99972.97;4482948;31;34247;-67
2022/03/06 00:23:33;;;;;;;;;;;;;;;8.77;31.06;99974.59;4482673;31;34385;-67
2022/03/06 00:26:01;;;;;;;;;;;;;;;9.09;30.71;99967.19;4482429;31;34300;-67
2022/03/06 00:28:29;;;;;;;;;;;;;;;9.16;30.38;99974.78;4491178;31;33785;-66
2022/03/06 00:30:57;;;;;;;;;;;;;;;9.36;30.21;99974.31;4488173;31;34281;-66
2022/03/06 00:33:25;;;;;;;;;;;;;;;9.54;29.80;99965.09;4484041;31;33282;-66
2022/03/06 00:35:52;;;;;;;;;;;;;;;9.16;30.87;99964.09;4486386;31;34105;-68
2022/03/06 00:38:20;;;;;;;;;;;;;;;9.05;31.24;99962.13;4488794;31;34296;-65
2022/03/06 00:40:48;;;;;;;;;;;;;;;9.06;31.46;99969.19;4492721;31;33939;-65
2022/03/06 00:43:15;;;;;;;;;;;;;;;8.54;31.42;99965.38;4485978;31;34180;-68
2022/03/06 00:45:44;;;;;;;;;;;;;;;8.97;30.76;99965.28;4492005;31;34381;-65
2022/03/06 00:48:13;;;;;;;;;;;;;;;9.14;30.66;99966.88;4490475;31;34205;-65
2022/03/06 00:50:40;;;;;;;;;;;;;;;9.61;29.73;99967.34;4491967;31;34242;-68
2022/03/06 00:53:08;;;;;;;;;;;;;;;9.69;29.82;99965.00;4493766;31;33573;-66
2022/03/06 00:55:36;;;;;;;;;;;;;;;9.82;29.41;99967.72;4483588;31;35209;-67
2022/03/06 00:58:06;;;;;;;;;;;;;;;9.89;29.31;99969.87;4470208;32;33970;-65
2022/03/06 01:00:35;;;;;;;;;;;;;;;9.66;29.70;99968.78;4487431;31;34635;-66
2022/03/06 01:03:04;;;;;;;;;;;;;;;9.59;29.91;99964.78;4484039;31;33280;-67
2022/03/06 01:05:32;;;;;;;;;;;;;;;9.48;30.00;99954.81;4491789;31;34006;-66
2022/03/06 01:08:00;;;;;;;;;;;;;;;9.56;30.00;99962.31;4490804;31;33205;-65
2022/03/06 01:10:27;;;;;;;;;;;;;;;9.76;29.60;99955.63;4484123;31;35142;-66
2022/03/06 01:12:55;;;;;;;;;;;;;;;9.71;29.51;99961.28;4496769;31;33357;-66
2022/03/06 01:15:22;;;;;;;;;;;;;;;9.72;29.55;99959.47;4494832;31;35336;-67
2022/03/06 01:17:50;;;;;;;;;;;;;;;9.73;29.70;99959.38;4489518;31;35017;-67
2022/03/06 01:20:19;;;;;;;;;;;;;;;9.64;30.03;99951.12;4491270;31;34107;-65
2022/03/06 01:22:47;;;;;;;;;;;;;;;9.54;29.89;99945.53;4496291;31;35077;-67
2022/03/06 01:25:15;;;;;;;;;;;;;;;9.46;29.93;99945.19;4499723;31;34136;-65
2022/03/06 01:27:42;;;;;;;;;;;;;;;9.66;29.53;99949.19;4493926;31;34138;-66
2022/03/06 01:30:11;;;;;;;;;;;;;;;9.56;29.78;99944.44;4477660;31;35632;-65
2022/03/06 01:32:39;;;;;;;;;;;;;;;9.60;29.83;99946.91;4498239;31;33325;-66
2022/03/06 01:35:06;;;;;;;;;;;;;;;9.71;29.58;99944.38;4482347;31;32258;-67
2022/03/06 01:37:34;;;;;;;;;;;;;;;9.40;30.37;99933.09;4481905;31;34276;-65
2022/03/06 01:40:02;;;;;;;;;;;;;;;9.37;30.08;99930.63;4483984;31;33690;-68
2022/03/06 01:42:30;;;;;;;;;;;;;;;9.36;30.34;99920.06;4489746;31;33754;-65
2022/03/06 01:44:58;;;;;;;;;;;;;;;9.22;30.51;99916.50;4482146;31;34683;-68
2022/03/06 01:47:32;;;;;;;;;;;;;;;9.43;30.40;99924.00;4490785;31;31984;-65
2022/03/06 01:50:00;;;;;;;;;;;;;;;9.39;30.03;99917.19;4483690;31;33838;-66
2022/03/06 01:52:28;;;;;;;;;;;;;;;9.56;29.60;99927.56;4490049;31;31571;-65
2022/03/06 01:54:56;;;;;;;;;;;;;;;9.29;30.25;99923.13;4485543;31;35145;-67
2022/03/06 01:57:23;;;;;;;;;;;;;;;9.28;30.12;99913.41;4485454;31;33884;-65
2022/03/06 01:59:51;;;;;;;;;;;;;;;9.15;30.25;99909.84;4488648;31;33988;-67
2022/03/06 02:02:19;;;;;;;;;;;;;;;9.19;30.20;99910.50;4484430;31;33260;-66
2022/03/06 02:04:47;;;;;;;;;;;;;;;9.02;30.54;99906.25;4468487;31;34270;-66
2022/03/06 02:07:15;;;;;;;;;;;;;;;8.65;31.16;99914.00;4483301;31;34218;-65
2022/03/06 02:09:43;;;;;;;;;;;;;;;8.92;30.58;99907.81;4487486;31;33920;-66
2022/03/06 02:12:23;;;;;;;;;;;;;;;9.05;30.14;99903.38;4490911;31;33891;-65
2022/03/06 02:14:51;;;;;;;;;;;;;;;9.05;29.94;99908.72;4474866;31;32825;-67
2022/03/06 02:17:19;;;;;;;;;;;;;;;9.08;29.61;99901.37;4484009;31;34182;-67
2022/03/06 02:20:06;;;;;;;;;;;;;;;9.09;29.46;99902.25;4484231;31;34986;-64
2022/03/06 02:22:36;;;;;;;;;;;;;;;8.91;30.03;99909.63;4489495;31;33180;-64
2022/03/06 02:25:05;;;;;;;;;;;;;;;8.95;29.72;99902.28;4482603;31;33997;-64
2022/03/06 02:27:32;;;;;;;;;;;;;;;8.93;29.71;99901.53;4485393;31;35503;-65
2022/03/06 02:30:03;;;;;;;;;;;;;;;8.75;30.12;99906.25;4490503;31;34291;-68
2022/03/06 02:32:30;;;;;;;;;;;;;;;8.70;29.93;99906.56;4486984;31;35923;-65
2022/03/06 02:34:58;;;;;;;;;;;;;;;8.64;30.21;99909.63;4487974;31;33829;-66
2022/03/06 02:37:26;;;;;;;;;;;;;;;8.51;30.79;99912.22;4487099;31;34323;-66
2022/03/06 02:39:53;;;;;;;;;;;;;;;8.55;30.73;99905.72;4483903;31;34264;-64
2022/03/06 02:42:25;;;;;;;;;;;;;;;8.57;30.67;99903.81;4485254;31;33358;-64
2022/03/06 02:44:53;;;;;;;;;;;;;;;8.48;31.08;99908.87;4484148;31;34224;-63
2022/03/06 02:47:21;;;;;;;;;;;;;;;8.34;31.24;99912.38;4491446;31;33395;-64
2022/03/06 02:49:49;;;;;;;;;;;;;;;8.64;30.52;99909.63;4488510;31;34344;-65
2022/03/06 02:52:18;;;;;;;;;;;;;;;8.67;30.60;99904.09;4492020;31;33260;-64
2022/03/06 02:54:45;;;;;;;;;;;;;;;8.48;31.29;99899.06;4483489;31;33885;-65
2022/03/06 02:57:13;;;;;;;;;;;;;;;8.38;31.17;99903.28;4489644;31;34303;-65
2022/03/06 02:59:41;;;;;;;;;;;;;;;8.46;31.33;99900.97;4484661;31;33888;-64
2022/03/06 03:02:08;;;;;;;;;;;;;;;8.08;32.53;99901.53;4480255;31;33169;-64
2022/03/06 03:04:37;;;;;;;;;;;;;;;8.39;31.38;99905.84;4482920;31;33283;-65
2022/03/06 03:07:14;;;;;;;;;;;;;;;8.52;31.19;99899.72;4479861;31;35692;-64
2022/03/06 03:09:50;;;;;;;;;;;;;;;8.15;32.31;99896.66;4483148;31;33702;-64
2022/03/06 03:12:18;;;;;;;;;;;;;;;8.39;31.77;99896.97;4487377;31;34305;-64
2022/03/06 03:14:48;;;;;;;;;;;;;;;8.28;31.95;99899.41;4487257;31;35076;-65
2022/03/06 03:17:19;;;;;;;;;;;;;;;7.79;32.86;99900.66;4481057;31;33019;-64
2022/03/06 03:19:49;;;;;;;;;;;;;;;8.24;31.96;99897.91;4483721;31;35464;-65
2022/03/06 03:22:17;;;;;;;;;;;;;;;7.97;32.17;99896.00;4481328;31;33346;-66
2022/03/06 03:24:47;;;;;;;;;;;;;;;8.32;31.47;99899.16;4484798;31;34933;-67
2022/03/06 03:27:17;;;;;;;;;;;;;;;8.55;30.68;99896.88;4484201;31;32987;-65
2022/03/06 03:29:47;;;;;;;;;;;;;;;8.46;30.42;99900.97;4483887;31;32919;-64
2022/03/06 03:32:16;;;;;;;;;;;;;;;8.19;30.72;99900.88;4481064;32;33185;-64
2022/03/06 03:34:45;;;;;;;;;;;;;;;7.90;30.86;99903.53;4479993;31;33817;-64
2022/03/06 03:37:16;;;;;;;;;;;;;;;8.06;30.58;99906.09;4485391;31;35215;-67
2022/03/06 03:39:45;;;;;;;;;;;;;;;8.09;30.50;99910.37;4482442;31;32402;-67
2022/03/06 03:42:14;;;;;;;;;;;;;;;7.87;30.87;99909.03;4483354;31;33342;-64
2022/03/06 03:44:42;;;;;;;;;;;;;;;7.78;31.02;99908.75;4480263;31;32737;-65
2022/03/06 03:47:10;;;;;;;;;;;;;;;7.66;31.23;99916.50;4480456;31;33163;-63
2022/03/06 03:49:39;;;;;;;;;;;;;;;7.52;31.60;99912.97;4482500;31;34110;-64
2022/03/06 03:52:07;;;;;;;;;;;;;;;7.02;32.46;99914.12;4480163;31;34053;-63
2022/03/06 03:54:36;;;;;;;;;;;;;;;7.14;32.12;99927.56;4482449;31;33055;-63
2022/03/06 03:57:04;;;;;;;;;;;;;;;6.88;33.15;99926.41;4482576;31;34466;-62
2022/03/06 03:59:33;;;;;;;;;;;;;;;6.76;32.99;99925.28;4484493;31;35136;-64
2022/03/06 04:02:01;;;;;;;;;;;;;;;6.95;32.70;99924.25;4488332;31;32170;-64
2022/03/06 04:04:30;;;;;;;;;;;;;;;7.21;32.33;99930.75;4485073;31;34209;-64
2022/03/06 04:06:59;;;;;;;;;;;;;;;7.17;32.37;99937.19;4481347;31;34970;-66
2022/03/06 04:09:27;;;;;;;;;;;;;;;7.12;32.40;99932.13;4482882;31;35557;-66
2022/03/06 04:11:56;;;;;;;;;;;;;;;7.06;32.63;99932.47;4484993;31;31807;-65
2022/03/06 04:14:24;;;;;;;;;;;;;;;6.78;33.21;99940.31;4480106;31;34059;-64
2022/03/06 04:16:52;;;;;;;;;;;;;;;6.96;32.84;99934.78;4479185;31;32787;-64
2022/03/06 04:19:20;;;;;;;;;;;;;;;6.71;33.55;99935.34;4482655;31;33956;-64
2022/03/06 04:21:49;;;;;;;;;;;;;;;6.93;32.84;99936.78;4480839;31;33264;-64
2022/03/06 04:24:17;;;;;;;;;;;;;;;6.97;32.70;99936.53;4484696;31;33923;-65
2022/03/06 04:26:47;;;;;;;;;;;;;;;6.76;33.03;99933.28;4489942;31;35176;-65
2022/03/06 04:29:25;;;;;;;;;;;;;;;6.96;32.76;99939.28;4480807;31;33880;-67
2022/03/06 04:31:56;;;;;;;;;;;;;;;6.91;32.95;99936.03;4482992;31;33469;-63
2022/03/06 04:34:25;;;;;;;;;;;;;;;6.92;32.71;99940.41;4481459;31;33511;-64
2022/03/06 04:36:54;;;;;;;;;;;;;;;7.13;32.32;99939.19;4485191;31;33597;-64
2022/03/06 04:39:23;;;;;;;;;;;;;;;6.10;34.33;99946.66;4481281;31;33724;-63
2022/03/06 04:41:52;;;;;;;;;;;;;;;6.87;32.71;99945.09;4483938;31;33178;-63
2022/03/06 04:44:22;;;;;;;;;;;;;;;6.86;32.79;99954.03;4483221;31;34081;-66
2022/03/06 04:46:52;;;;;;;;;;;;;;;6.72;32.90;99944.19;4482256;31;34243;-63
2022/03/06 04:49:21;;;;;;;;;;;;;;;6.30;33.64;99943.78;4487371;31;34456;-63
2022/03/06 04:51:52;;;;;;;;;;;;;;;6.63;33.58;99942.88;4483339;31;33207;-64
2022/03/06 04:54:22;;;;;;;;;;;;;;;6.70;33.72;99938.06;4484910;31;32777;-64
2022/03/06 04:56:51;;;;;;;;;;;;;;;6.55;34.03;99947.78;4489584;31;34478;-63
2022/03/06 04:59:21;;;;;;;;;;;;;;;5.88;35.48;99954.00;4484955;31;33900;-65
2022/03/06 05:01:50;;;;;;;;;;;;;;;6.06;35.83;99947.75;4486491;31;32290;-63
2022/03/06 05:04:21;;;;;;;;;;;;;;;6.52;34.55;99942.63;4479958;31;34000;-65
2022/03/06 05:06:50;;;;;;;;;;;;;;;6.89;33.55;99943.22;4478802;31;35096;-66
2022/03/06 05:09:20;;;;;;;;;;;;;;;6.65;33.79;99940.16;4482423;31;34547;-66
2022/03/06 05:11:49;;;;;;;;;;;;;;;6.64;33.69;99943.72;4484056;31;33592;-65
2022/03/06 05:14:21;;;;;;;;;;;;;;;6.31;34.14;99952.63;4491375;31;34195;-64
2022/03/06 05:16:55;;;;;;;;;;;;;;;6.01;35.09;99953.31;4489869;31;34189;-63
2022/03/06 05:19:24;;;;;;;;;;;;;;;6.61;34.16;99954.53;4484780;31;33789;-63
2022/03/06 05:21:53;;;;;;;;;;;;;;;6.07;34.74;99958.31;4491392;31;32247;-65
2022/03/06 05:24:22;;;;;;;;;;;;;;;5.62;36.02;99956.22;4482288;31;34348;-64
2022/03/06 05:26:51;;;;;;;;;;;;;;;5.59;36.50;99956.37;4490542;31;34163;-66
2022/03/06 05:29:19;;;;;;;;;;;;;;;5.83;36.46;99951.59;4482336;31;33935;-66
2022/03/06 05:31:48;;;;;;;;;;;;;;;5.80;35.91;99959.69;4487576;31;34347;-64
2022/03/06 05:34:16;;;;;;;;;;;;;;;6.42;34.43;99960.00;4483913;31;34597;-63
2022/03/06 05:36:44;;;;;;;;;;;;;;;5.82;35.26;99958.69;4488012;31;34842;-64
2022/03/06 05:39:13;;;;;;;;;;;;;;;6.23;35.19;99955.69;4482772;31;33574;-65
2022/03/06 05:41:41;;;;;;;;;;;;;;;6.67;34.46;99957.72;4494906;31;34063;-64
2022/03/06 05:44:10;;;;;;;;;;;;;;;5.90;35.19;99966.25;4481130;31;34194;-65
2022/03/06 05:46:38;;;;;;;;;;;;;;;6.56;34.74;99957.47;4489518;31;33774;-65
2022/03/06 05:49:12;;;;;;;;;;;;;;;6.74;34.97;99952.91;4490492;31;34064;-64
2022/03/06 05:51:41;;;;;;;;;;;;;;;6.39;34.82;99970.81;4483260;31;33992;-65
2022/03/06 05:54:10;;;;;;;;;;;;;;;6.86;33.90;99960.22;4483107;31;34208;-64
2022/03/06 05:56:41;;;;;;;;;;;;;;;6.89;33.88;99962.72;4491472;31;34102;-63
2022/03/06 05:59:10;;;;;;;;;;;;;;;7.01;34.42;99963.81;4488621;31;34453;-66
2022/03/06 06:01:44;;;;;;;;;;;;;;;7.32;33.42;99960.28;4481681;31;33371;-65
2022/03/06 06:04:15;;;;;;;;;;;;;;;7.62;33.20;99965.59;4482289;31;34124;-64
2022/03/06 06:06:44;;;;;;;;;;;;;;;7.70;33.24;99962.47;4489926;31;33445;-66
2022/03/06 06:09:12;;;;;;;;;;;;;;;7.86;32.63;99959.75;4488138;31;34193;-64
2022/03/06 06:11:40;;;;;;;;;;;;;;;7.31;33.75;99955.03;4484286;31;32360;-64
2022/03/06 06:14:10;;;;;;;;;;;;;;;8.03;32.52;99951.62;4481910;31;33824;-63
2022/03/06 06:16:39;;;;;;;;;;;;;;;7.32;35.36;99952.28;4482017;31;33706;-65
2022/03/06 06:19:08;;;;;;;;;;;;;;;7.72;33.31;99943.75;4482777;31;33102;-64
2022/03/06 06:21:37;;;;;;;;;;;;;;;7.66;34.05;99940.50;4479788;31;34500;-64
2022/03/06 06:24:06;;;;;;;;;;;;;;;7.64;33.98;99942.41;4484595;31;33007;-64
2022/03/06 06:26:36;;;;;;;;;;;;;;;7.42;34.66;99933.97;4482278;31;33111;-64
2022/03/06 06:29:05;;;;;;;;;;;;;;;6.87;36.18;99929.12;4483010;31;33827;-64
2022/03/06 06:31:34;;;;;;;;;;;;;;;7.06;35.92;99932.47;4485725;31;33536;-65
2022/03/06 06:34:04;;;;;;;;;;;;;;;6.81;36.83;99925.06;4480519;31;33929;-64
2022/03/06 06:36:32;;;;;;;;;;;;;;;6.96;36.82;99931.28;4481792;31;34305;-64
2022/03/06 06:39:01;;;;;;;;;;;;;;;6.60;36.90;99940.37;4493212;31;33815;-69
2022/03/06 06:41:31;;;;;;;;;;;;;;;7.01;35.48;99939.87;4482449;31;32336;-66
2022/03/06 06:44:00;;;;;;;;;;;;;;;6.78;35.58;99943.84;4485298;31;33794;-64
2022/03/06 06:46:29;;;;;;;;;;;;;;;6.48;36.95;99947.22;4483979;31;33099;-65
2022/03/06 06:48:58;;;;;;;;;;;;;;;7.50;34.37;99947.69;4477874;31;33171;-66
2022/03/06 06:51:27;;;;;;;;;;;;;;;6.89;35.86;99957.38;4481543;31;32312;-66
2022/03/06 06:53:55;;;;;;;;;;;;;;;7.77;34.64;99949.63;4484201;31;32931;-66
2022/03/06 06:56:23;;;;;;;;;;;;;;;9.90;30.53;99950.19;4481661;31;34467;-66
2022/03/06 06:58:52;;;;;;;;;;;;;;;10.54;29.22;99942.19;4484208;31;34182;-65
2022/03/06 07:01:20;;;;;;;;;;;;;;;9.47;30.17;99946.88;4481428;31;34151;-67
2022/03/06 07:03:48;;;;;;;;;;;;;;;9.26;30.71;99946.50;4484500;31;34034;-66
2022/03/06 07:06:17;;;;;;;;;;;;;;;8.46;32.61;99956.97;4485791;31;34345;-68
2022/03/06 07:08:45;;;;;;;;;;;;;;;9.13;30.89;99953.63;4482673;31;33697;-66
2022/03/06 07:11:13;;;;;;;;;;;;;;;8.31;32.03;99957.91;4482502;31;32328;-66
2022/03/06 07:13:41;;;;;;;;;;;;;;;8.79;31.07;99951.31;4485373;31;34367;-65
2022/03/06 07:16:09;;;;;;;;;;;;;;;8.01;32.74;99961.50;4482435;31;35930;-65
2022/03/06 07:18:39;;;;;;;;;;;;;;;7.79;32.55;99958.41;4481571;31;34211;-67
2022/03/06 07:21:07;;;;;;;;;;;;;;;7.52;32.30;99963.59;4480526;31;33445;-67
2022/03/06 07:23:35;;;;;;;;;;;;;;;7.74;32.79;99961.38;4481960;31;33787;-64
2022/03/06 07:26:06;;;;;;;;;;;;;;;8.00;32.42;99956.28;4482269;31;34830;-65
2022/03/06 07:28:41;;;;;;;;;;;;;;;8.30;33.25;99961.53;4493903;31;33164;-64
2022/03/06 07:31:15;;;;;;;;;;;;;;;7.46;32.56;99951.47;4482754;31;33923;-64
2022/03/06 07:33:50;;;;;;;;;;;;;;;7.40;33.01;99946.50;4484987;31;34858;-66
2022/03/06 07:36:27;;;;;;;;;;;;;;;8.01;32.49;99956.16;4490715;31;35390;-64
2022/03/06 07:39:02;;;;;;;;;;;;;;;6.79;33.84;99958.00;4482219;31;32281;-65
2022/03/06 07:41:34;;;;;;;;;;;;;;;7.35;34.44;99957.44;4485103;31;32350;-65
2022/03/06 07:44:06;;;;;;;;;;;;;;;7.72;32.91;99946.41;4483975;31;33662;-64
2022/03/06 07:46:41;;;;;;;;;;;;;;;7.87;31.76;99942.84;4484369;31;33379;-65
2022/03/06 07:49:16;;;;;;;;;;;;;;;8.34;30.92;99955.03;4489895;31;33517;-65
2022/03/06 07:51:52;;;;;;;;;;;;;;;8.48;31.76;99939.09;4482209;31;33571;-64
2022/03/06 07:54:26;;;;;;;;;;;;;;;8.46;31.58;99946.31;4483445;31;33174;-66
2022/03/06 07:56:56;;;;;;;;;;;;;;;8.98;31.25;99932.28;4484466;31;33597;-67
2022/03/06 07:59:40;;;;;;;;;;;;;;;9.52;30.83;99940.28;4488942;31;33924;-64
2022/03/06 08:02:24;;;;;;;;;;;;;;;9.64;29.65;99935.94;4484395;31;33569;-65
2022/03/06 08:04:58;;;;;;;;;;;;;;;10.29;28.69;99934.19;4484225;31;34179;-65
2022/03/06 08:07:34;;;;;;;;;;;;;;;10.40;27.82;99929.78;4485428;31;33518;-66
2022/03/06 08:10:06;;;;;;;;;;;;;;;9.86;29.63;99947.84;4485558;31;35168;-65
2022/03/06 08:12:37;;;;;;;;;;;;;;;9.23;29.74;99931.53;4484470;31;33078;-66
2022/03/06 08:15:14;;;;;;;;;;;;;;;8.49;30.57;99938.13;4484177;31;35389;-65
2022/03/06 08:17:49;;;;;;;;;;;;;;;9.06;30.44;99938.00;4484993;31;34810;-65
2022/03/06 08:20:21;;;;;;;;;;;;;;;9.10;30.19;99933.31;4485739;31;32450;-65
2022/03/06 08:23:03;;;;;;;;;;;;;;;8.60;30.18;99924.97;4484118;31;33928;-65
2022/03/06 08:25:39;;;;;;;;;;;;;;;8.80;30.10;99928.16;4485414;31;34186;-64
2022/03/06 08:28:14;;;;;;;;;;;;;;;8.39;30.25;99931.66;4483429;31;34427;-64
2022/03/06 08:30:47;;;;;;;;;;;;;;;8.43;30.82;99927.84;4490774;31;33986;-65
2022/03/06 08:33:23;;;;;;;;;;;;;;;8.78;29.89;99924.72;4486034;31;33942;-65
2022/03/06 08:35:55;;;;;;;;;;;;;;;8.91;29.11;99922.13;4484968;31;34235;-64
2022/03/06 08:38:25;;;;;;;;;;;;;;;9.33;29.12;99913.94;4485907;31;35347;-66
2022/03/06 08:40:56;;;;;;;;;;;;;;;9.69;28.09;99917.75;4486997;31;32863;-65
2022/03/06 08:43:25;;;;;;;;;;;;;;;10.47;27.41;99908.81;4492476;31;32318;-65
2022/03/06 08:45:58;;;;;;;;;;;;;;;11.52;25.54;99904.63;4488016;31;33803;-66
2022/03/06 08:48:29;;;;;;;;;;;;;;;12.00;24.74;99901.84;4483392;31;33053;-64
2022/03/06 08:51:02;;;;;;;;;;;;;;;12.32;23.74;99904.66;4485518;31;35240;-68
2022/03/06 08:53:37;;;;;;;;;;;;;;;12.78;23.41;99904.50;4489726;31;33157;-65
2022/03/06 08:56:12;;;;;;;;;;;;;;;12.21;23.66;99908.19;4492201;31;34481;-64
2022/03/06 08:58:46;;;;;;;;;;;;;;;11.54;24.92;99905.34;4488339;31;33195;-68
2022/03/06 09:01:18;;;;;;;;;;;;;;;11.75;24.23;99910.88;4489544;31;35822;-65
2022/03/06 09:03:51;;;;;;;;;;;;;;;10.84;26.89;99908.81;4485986;31;33335;-66
2022/03/06 09:06:22;;;;;;;;;;;;;;;10.26;26.75;99914.69;4494360;31;34558;-65
2022/03/06 09:08:54;;;;;;;;;;;;;;;10.35;26.42;99913.19;4492557;31;37754;-65
2022/03/06 09:11:24;;;;;;;;;;;;;;;10.46;25.70;99910.63;4494426;31;33179;-65
2022/03/06 09:13:54;;;;;;;;;;;;;;;10.94;25.56;99912.50;4486337;31;32971;-64
2022/03/06 09:16:24;;;;;;;;;;;;;;;11.40;26.57;99909.09;4490255;31;33222;-65
2022/03/06 09:18:57;;;;;;;;;;;;;;;11.51;25.99;99908.28;4484819;31;34163;-66
2022/03/06 09:21:28;;;;;;;;;;;;;;;11.04;26.07;99910.00;4488014;31;34227;-66
2022/03/06 09:23:57;;;;;;;;;;;;;;;11.65;25.16;99919.66;4484590;31;32726;-64
2022/03/06 09:26:32;;;;;;;;;;;;;;;10.74;26.26;99903.25;4484388;31;35066;-65
2022/03/06 09:29:00;;;;;;;;;;;;;;;10.01;27.36;99904.84;4488258;31;35438;-67
2022/03/06 09:31:31;;;;;;;;;;;;;;;10.44;26.51;99903.66;4487344;31;34111;-65
2022/03/06 09:34:06;;;;;;;;;;;;;;;10.72;25.86;99910.53;4484416;31;33137;-65
2022/03/06 09:36:55;;;;;;;;;;;;;;;10.84;26.15;99896.25;4494538;31;34013;-64
2022/03/06 09:39:29;;;;;;;;;;;;;;;10.28;26.38;99897.72;4490175;31;33282;-65
2022/03/06 09:42:02;;;;;;;;;;;;;;;10.69;26.70;99897.41;4492165;31;33045;-65
2022/03/06 09:44:36;;;;;;;;;;;;;;;10.60;25.85;99893.56;4484976;31;32232;-66
2022/03/06 09:47:10;;;;;;;;;;;;;;;11.00;25.88;99898.66;4476986;32;33058;-65
2022/03/06 09:49:43;;;;;;;;;;;;;;;10.57;25.81;99885.75;4470485;31;34897;-67
2022/03/06 09:52:14;;;;;;;;;;;;;;;10.79;26.20;99882.38;4484808;31;34276;-65
2022/03/06 09:54:44;;;;;;;;;;;;;;;11.36;25.54;99884.34;4493273;31;33945;-66
2022/03/06 09:57:18;;;;;;;;;;;;;;;12.23;24.73;99886.59;4485466;31;34034;-65
2022/03/06 09:59:52;;;;;;;;;;;;;;;11.71;24.17;99893.34;4483879;31;34133;-64
2022/03/06 10:02:27;;;;;;;;;;;;;;;11.65;25.15;99878.56;4486857;31;32514;-64
2022/03/06 10:04:57;;;;;;;;;;;;;;;12.03;24.80;99883.66;4487931;31;32072;-65
2022/03/06 10:07:32;;;;;;;;;;;;;;;12.47;24.34;99881.97;4483214;31;32979;-65
2022/03/06 10:10:05;;;;;;;;;;;;;;;13.09;23.75;99876.94;4483358;31;33127;-65
2022/03/06 10:12:40;;;;;;;;;;;;;;;13.24;23.12;99878.37;4485308;31;35234;-66
2022/03/06 10:15:16;;;;;;;;;;;;;;;13.73;22.69;99883.12;4488441;31;33735;-68
2022/03/06 10:17:49;;;;;;;;;;;;;;;13.26;23.98;99871.06;4485310;31;33832;-68
2022/03/06 10:20:21;;;;;;;;;;;;;;;12.66;23.76;99881.34;4469439;31;34839;-66
2022/03/06 10:22:58;;;;;;;;;;;;;;;12.73;24.74;99870.94;4486871;31;34361;-65
2022/03/06 10:25:33;;;;;;;;;;;;;;;12.24;23.69;99873.06;4488288;31;33331;-65
2022/03/06 10:28:03;;;;;;;;;;;;;;;12.20;24.28;99868.06;4487967;31;34799;-65
2022/03/06 10:30:45;;;;;;;;;;;;;;;13.10;23.72;99868.78;4488766;31;33959;-65
2022/03/06 10:33:24;;;;;;;;;;;;;;;12.55;23.95;99863.41;4487579;31;33383;-64
2022/03/06 10:35:58;;;;;;;;;;;;;;;11.68;24.51;99864.94;4490714;31;32295;-64
2022/03/06 10:38:28;;;;;;;;;;;;;;;11.87;25.09;99861.69;4491984;31;33017;-64
2022/03/06 10:41:01;;;;;;;;;;;;;;;11.93;24.88;99861.22;4487339;31;35109;-66
2022/03/06 10:43:37;;;;;;;;;;;;;;;10.80;25.84;99849.28;4485419;31;35334;-66
2022/03/06 10:46:12;;;;;;;;;;;;;;;12.28;24.21;99849.53;4483540;31;33507;-66
2022/03/06 10:48:57;;;;;;;;;;;;;;;11.91;25.42;99844.41;4490898;31;32925;-65
2022/03/06 10:51:27;;;;;;;;;;;;;;;12.24;24.26;99842.72;4487949;31;34181;-65
2022/03/06 10:54:01;;;;;;;;;;;;;;;12.54;24.13;99842.91;4487760;31;33473;-68
2022/03/06 10:56:34;;;;;;;;;;;;;;;12.95;23.23;99843.19;4483527;31;34864;-67
2022/03/06 10:59:06;;;;;;;;;;;;;;;13.66;22.92;99835.41;4483686;31;33053;-66
2022/03/06 11:01:38;;;;;;;;;;;;;;;13.81;22.20;99823.31;4483611;31;35402;-66
2022/03/06 11:04:09;;;;;;;;;;;;;;;13.57;22.54;99830.81;4482732;31;32913;-65
2022/03/06 11:06:45;;;;;;;;;;;;;;;13.39;22.64;99819.81;4484201;31;31790;-65
2022/03/06 11:09:19;;;;;;;;;;;;;;;13.52;22.88;99810.56;4485687;31;32761;-65
2022/03/06 11:11:50;;;;;;;;;;;;;;;13.36;23.29;99809.31;4484315;31;33886;-65
2022/03/06 11:14:23;;;;;;;;;;;;;;;13.32;23.19;99811.37;4487958;31;33457;-65
2022/03/06 11:16:53;;;;;;;;;;;;;;;12.66;23.80;99799.94;4467977;31;32479;-66
2022/03/06 11:19:23;;;;;;;;;;;;;;;12.85;23.45;99797.41;4484782;31;33924;-65
2022/03/06 11:22:01;;;;;;;;;;;;;;;13.36;23.44;99795.87;4485811;31;34661;-65
2022/03/06 11:24:35;;;;;;;;;;;;;;;13.35;23.05;99791.47;4472783;31;32658;-65
2022/03/06 11:27:25;;;;;;;;;;;;;;;14.37;22.56;99784.28;4471667;31;33078;-66
2022/03/06 11:30:00;;;;;;;;;;;;;;;14.35;21.58;99786.25;4483365;31;33860;-66
2022/03/06 11:32:31;;;;;;;;;;;;;;;13.41;22.54;99785.56;4484318;31;33369;-65
2022/03/06 11:35:12;;;;;;;;;;;;;;;14.04;23.14;99789.00;4485882;31;33494;-65
2022/03/06 11:37:52;;;;;;;;;;;;;;;13.16;23.30;99798.41;4472373;31;33162;-65
2022/03/06 11:40:39;;;;;;;;;;;;;;;13.69;22.57;99776.81;4483780;31;32987;-67
2022/03/06 11:43:30;;;;;;;;;;;;;;;14.16;22.53;99769.09;4484125;31;32982;-64
2022/03/06 11:46:09;;;;;;;;;;;;;;;13.68;22.54;99775.13;4482227;31;34130;-65
2022/03/06 11:48:38;;;;;;;;;;;;;;;13.67;23.01;99778.78;4490112;31;33859;-66
2022/03/06 11:51:22;;;;;;;;;;;;;;;14.01;23.58;99778.50;4485225;31;32793;-65
2022/03/06 11:54:06;;;;;;;;;;;;;;;15.03;21.67;99771.06;4483207;31;34207;-65
2022/03/06 11:56:38;;;;;;;;;;;;;;;14.56;21.44;99762.81;4485503;31;33976;-65
2022/03/06 11:59:11;;;;;;;;;;;;;;;14.90;21.31;99768.66;4485075;31;32298;-68
2022/03/06 12:01:45;;;;;;;;;;;;;;;14.22;21.59;99756.87;4483436;31;34296;-65
2022/03/06 12:04:21;;;;;;;;;;;;;;;15.09;20.98;99754.31;4486483;31;34469;-65
2022/03/06 12:06:57;;;;;;;;;;;;;;;14.29;21.53;99751.84;4483184;31;34371;-65
2022/03/06 12:09:34;;;;;;;;;;;;;;;15.12;20.55;99750.50;4481089;31;33195;-65
2022/03/06 12:12:12;;;;;;;;;;;;;;;15.59;20.83;99745.97;4483249;31;33990;-69
2022/03/06 12:14:46;;;;;;;;;;;;;;;15.58;20.72;99744.28;4482027;31;33936;-66
2022/03/06 12:17:21;;;;;;;;;;;;;;;15.76;20.53;99735.44;4485304;31;34143;-65
2022/03/06 12:19:49;;;;;;;;;;;;;;;16.22;19.75;99739.91;4485599;31;32052;-65
2022/03/06 12:22:33;;;;;;;;;;;;;;;15.64;19.91;99734.75;4482151;31;33896;-66
2022/03/06 12:25:13;;;;;;;;;;;;;;;15.89;21.06;99733.28;4484265;31;33221;-66
2022/03/06 12:28:05;;;;;;;;;;;;;;;16.48;18.80;99734.63;4486226;31;33056;-66
2022/03/06 12:30:40;;;;;;;;;;;;;;;16.97;18.40;99729.72;4481541;31;32030;-65
2022/03/06 12:33:29;;;;;;;;;;;;;;;16.36;19.29;99724.19;4489853;31;32887;-66
2022/03/06 12:36:10;;;;;;;;;;;;;;;17.25;18.17;99712.53;4489590;31;34424;-66
2022/03/06 12:38:43;;;;;;;;;;;;;;;17.68;17.99;99717.84;4481021;31;33936;-66
2022/03/06 12:41:17;;;;;;;;;;;;;;;17.52;18.24;99706.09;4482333;31;32245;-67
2022/03/06 12:43:56;;;;;;;;;;;;;;;17.21;19.05;99714.72;4482875;31;34535;-69
2022/03/06 12:46:27;;;;;;;;;;;;;;;17.26;17.96;99709.66;4485842;31;35073;-66
2022/03/06 12:48:57;;;;;;;;;;;;;;;17.13;18.46;99704.66;4482658;31;34231;-66
2022/03/06 12:51:28;;;;;;;;;;;;;;;17.25;18.46;99705.25;4487759;31;34332;-67
2022/03/06 12:54:03;;;;;;;;;;;;;;;17.43;18.10;99705.19;4491053;31;33548;-66
2022/03/06 12:56:42;;;;;;;;;;;;;;;16.88;18.31;99700.06;4491287;31;34395;-66
2022/03/06 12:59:21;;;;;;;;;;;;;;;14.91;19.61;99696.75;4473193;31;35163;-66
2022/03/06 13:01:50;;;;;;;;;;;;;;;16.49;19.15;99693.09;4488813;31;33056;-67
2022/03/06 13:04:25;;;;;;;;;;;;;;;15.17;19.77;99696.97;4483914;31;33122;-66
2022/03/06 13:06:53;;;;;;;;;;;;;;;15.91;19.30;99690.78;4488077;31;34294;-66
2022/03/06 13:09:27;;;;;;;;;;;;;;;15.99;19.79;99687.34;4486218;31;34279;-67
2022/03/06 13:12:03;;;;;;;;;;;;;;;15.76;19.53;99686.88;4490951;31;32173;-67
2022/03/06 13:14:35;;;;;;;;;;;;;;;15.00;20.28;99685.09;4484917;31;34350;-66